< < Back
Terminal Aerodrome Forecast


Current Version              Previous Versions:   1  2  3  4  5  6  7  8  9  

Terminal Aerodrome Forecast

667
FTUS44 KBMX 101120
TAFTCL
TAF
KTCL 101120Z 1012/1112 31007KT P6SM SKC
     FM101500 29010G17KT P6SM SKC
     FM110000 22003KT P6SM SKC=

Latest METAR

901
SAUS70 KWBC 111500 RRF
MTRTCL
METAR KTCL 111453Z 20003KT 7SM CLR 05/M01 A3016 RMK AO2 SLP213 T00501006
51003


USA.gov is the U.S. government's official web portal to all federal, state and local government web resources and services.